createdAt,value
2023-05-21T00:00:50.342Z,15.48
2023-05-21T00:03:16.509Z,13.65
2023-05-21T00:05:42.805Z,13.30
2023-05-21T00:08:05.878Z,14.85
2023-05-21T00:10:28.446Z,13.43
2023-05-21T00:12:51.054Z,16.60
2023-05-21T00:15:13.622Z,15.70
2023-05-21T00:17:37.129Z,14.93
2023-05-21T00:20:00.303Z,13.30
2023-05-21T00:22:23.915Z,13.93
2023-05-21T00:24:46.546Z,13.25
2023-05-21T00:27:09.234Z,15.07
2023-05-21T00:29:31.872Z,16.55
2023-05-21T00:31:54.630Z,14.10
2023-05-21T00:34:17.376Z,14.82
2023-05-21T00:36:40.688Z,15.70
2023-05-21T00:39:04.639Z,15.48
2023-05-21T00:41:27.366Z,14.40
2023-05-21T00:43:50.369Z,13.60
2023-05-21T00:46:20.959Z,15.45
2023-05-21T00:48:47.815Z,14.82
2023-05-21T00:51:10.573Z,14.65
2023-05-21T00:53:35.696Z,14.02
2023-05-21T00:55:58.509Z,14.60
2023-05-21T00:58:21.486Z,17.67
2023-05-21T01:00:44.606Z,15.10
2023-05-21T01:03:07.457Z,13.75
2023-05-21T01:05:30.981Z,14.38
2023-05-21T01:07:53.854Z,14.45
2023-05-21T01:10:16.623Z,14.63
2023-05-21T01:12:41.802Z,14.43
2023-05-21T01:15:05.435Z,15.35
2023-05-21T01:17:30.211Z,15.45
2023-05-21T01:19:54.716Z,15.52
2023-05-21T01:22:18.774Z,14.50
2023-05-21T01:24:47.781Z,15.63
2023-05-21T01:27:10.755Z,14.40
2023-05-21T01:29:33.935Z,15.25
2023-05-21T01:31:59.717Z,13.57
2023-05-21T01:34:29.564Z,14.02
2023-05-21T01:37:13.181Z,15.40
2023-05-21T01:39:39.984Z,14.95
2023-05-21T01:42:04.082Z,16.83
2023-05-21T01:44:27.351Z,14.35
2023-05-21T01:46:50.980Z,13.05
2023-05-21T01:49:14.768Z,14.93
2023-05-21T01:51:38.067Z,16.45
2023-05-21T01:54:01.751Z,15.05
2023-05-21T01:56:25.946Z,14.48
2023-05-21T01:58:50.114Z,13.27
2023-05-21T02:01:12.778Z,15.88
2023-05-21T02:03:35.825Z,14.95
2023-05-21T02:05:58.740Z,13.68
2023-05-21T02:08:23.470Z,12.85
2023-05-21T02:10:46.311Z,14.27
2023-05-21T02:13:09.206Z,14.05
2023-05-21T02:15:34.652Z,15.45
2023-05-21T02:17:58.448Z,14.30
2023-05-21T02:20:22.829Z,15.57
2023-05-21T02:22:47.755Z,14.02
2023-05-21T02:25:51.642Z,15.38
2023-05-21T02:28:15.981Z,13.00
2023-05-21T02:30:38.632Z,15.10
2023-05-21T02:33:02.983Z,13.70
2023-05-21T02:35:26.129Z,12.25
2023-05-21T02:37:49.095Z,15.25
2023-05-21T02:40:12.692Z,13.43
2023-05-21T02:42:36.735Z,14.20
2023-05-21T02:45:00.057Z,11.75
2023-05-21T02:47:23.983Z,13.90
2023-05-21T02:49:47.216Z,14.40
2023-05-21T02:52:10.425Z,14.98
2023-05-21T02:54:33.273Z,13.35
2023-05-21T02:56:56.049Z,14.60
2023-05-21T02:59:18.655Z,14.68
2023-05-21T03:01:41.464Z,15.63
2023-05-21T03:04:04.637Z,13.93
2023-05-21T03:06:27.415Z,12.35
2023-05-21T03:08:50.042Z,15.35
2023-05-21T03:11:12.730Z,13.75
2023-05-21T03:13:35.420Z,14.73
2023-05-21T03:15:58.215Z,11.82
2023-05-21T03:18:21.402Z,13.60
2023-05-21T03:20:47.367Z,13.75
2023-05-21T03:23:14.892Z,14.35
2023-05-21T03:25:39.791Z,13.45
2023-05-21T03:28:02.841Z,13.45
2023-05-21T03:30:42.056Z,15.15
2023-05-21T03:33:24.163Z,12.25
2023-05-21T03:35:46.771Z,12.40
2023-05-21T03:38:09.511Z,14.35
2023-05-21T03:40:32.149Z,12.95
2023-05-21T03:42:54.946Z,11.27
2023-05-21T03:45:17.616Z,12.27
2023-05-21T03:48:02.161Z,13.45
2023-05-21T03:50:25.690Z,13.45
2023-05-21T03:52:48.342Z,13.57
2023-05-21T03:55:11.226Z,11.55
2023-05-21T03:57:33.951Z,12.00
2023-05-21T03:59:59.108Z,10.57
2023-05-21T04:02:22.855Z,10.65
2023-05-21T04:04:46.820Z,14.60
2023-05-21T04:07:14.465Z,11.23
2023-05-21T04:09:37.253Z,11.07
2023-05-21T04:11:59.884Z,12.07
2023-05-21T04:14:23.402Z,11.90
2023-05-21T04:16:49.268Z,11.23
2023-05-21T04:19:12.160Z,11.70
2023-05-21T04:21:36.400Z,11.05
2023-05-21T04:24:00.948Z,11.70
2023-05-21T04:26:43.379Z,12.23
2023-05-21T04:29:06.215Z,13.65
2023-05-21T04:31:32.499Z,11.02
2023-05-21T04:33:57.101Z,11.65
2023-05-21T04:36:20.460Z,10.20
2023-05-21T04:38:43.399Z,10.88
2023-05-21T04:41:06.967Z,12.00
2023-05-21T04:43:29.925Z,11.23
2023-05-21T04:45:55.051Z,11.45
2023-05-21T04:48:19.493Z,10.98
2023-05-21T04:50:43.881Z,11.23
2023-05-21T04:53:06.551Z,11.70
2023-05-21T04:55:29.301Z,13.13
2023-05-21T04:57:52.800Z,11.48
2023-05-21T05:00:16.681Z,12.15
2023-05-21T05:02:41.589Z,9.45
2023-05-21T05:05:04.910Z,10.70
2023-05-21T05:07:27.656Z,10.13
2023-05-21T05:09:50.308Z,10.82
2023-05-21T05:12:13.000Z,10.63
2023-05-21T05:14:36.170Z,10.68
2023-05-21T05:17:02.008Z,11.15
2023-05-21T05:19:24.724Z,10.60
2023-05-21T05:21:47.969Z,10.23
2023-05-21T05:24:10.860Z,9.52
2023-05-21T05:26:33.673Z,12.63
2023-05-21T05:28:56.327Z,11.35
2023-05-21T05:31:19.495Z,11.93
2023-05-21T05:33:42.354Z,10.68
2023-05-21T05:36:05.522Z,8.90
2023-05-21T05:38:28.166Z,11.15
2023-05-21T05:40:50.909Z,10.63
2023-05-21T05:43:13.557Z,9.68
2023-05-21T05:45:36.514Z,10.60
2023-05-21T05:48:05.509Z,9.27
2023-05-21T05:50:29.320Z,11.85
2023-05-21T05:52:52.014Z,10.13
2023-05-21T05:55:15.800Z,10.73
2023-05-21T05:57:38.701Z,9.57
2023-05-21T06:00:07.160Z,9.55
2023-05-21T06:02:34.968Z,10.48
2023-05-21T06:04:58.475Z,9.60
2023-05-21T06:07:21.087Z,10.13
2023-05-21T06:09:43.821Z,9.27
2023-05-21T06:12:07.564Z,9.25
2023-05-21T06:14:31.674Z,10.48
2023-05-21T06:16:54.286Z,9.60
2023-05-21T06:19:17.240Z,8.75
2023-05-21T06:21:39.837Z,10.10
2023-05-21T06:24:03.523Z,8.80
2023-05-21T06:26:26.446Z,8.85
2023-05-21T06:28:49.997Z,8.57
2023-05-21T06:31:13.733Z,9.13
2023-05-21T06:33:38.270Z,8.38
2023-05-21T06:36:01.466Z,9.60
2023-05-21T06:38:24.310Z,8.68
2023-05-21T06:40:47.949Z,10.80
2023-05-21T06:43:19.844Z,9.73
2023-05-21T06:46:02.766Z,11.63
2023-05-21T06:48:34.930Z,9.68
2023-05-21T06:50:57.701Z,10.40
2023-05-21T06:53:20.377Z,8.57
2023-05-21T06:55:45.124Z,9.10
2023-05-21T06:58:36.934Z,8.98
2023-05-21T07:01:01.453Z,8.40
2023-05-21T07:03:24.467Z,9.77
2023-05-21T07:05:47.481Z,7.60
2023-05-21T07:08:11.931Z,9.07
2023-05-21T07:10:34.906Z,9.35
2023-05-21T07:12:58.112Z,7.50
2023-05-21T07:15:20.877Z,8.23
2023-05-21T07:17:43.610Z,9.10
2023-05-21T07:20:07.958Z,10.15
2023-05-21T07:22:32.418Z,8.20
2023-05-21T07:24:55.044Z,9.57
2023-05-21T07:27:25.775Z,10.73
2023-05-21T07:29:50.614Z,9.15
2023-05-21T07:32:13.318Z,8.70
2023-05-21T07:34:36.110Z,11.45
2023-05-21T07:36:59.285Z,8.52
2023-05-21T07:39:23.442Z,11.23
2023-05-21T07:41:46.233Z,9.90
2023-05-21T07:44:09.039Z,9.73
2023-05-21T07:46:35.923Z,10.55
2023-05-21T07:48:59.122Z,9.70
2023-05-21T07:51:22.036Z,10.05
2023-05-21T07:53:44.680Z,9.02
2023-05-21T07:56:10.035Z,8.88
2023-05-21T07:58:32.783Z,8.40
2023-05-21T08:00:55.977Z,8.88
2023-05-21T08:03:20.575Z,9.20
2023-05-21T08:05:50.963Z,11.18
2023-05-21T08:08:14.575Z,8.27
2023-05-21T08:10:37.438Z,12.18
2023-05-21T08:13:00.140Z,9.30
2023-05-21T08:15:23.341Z,10.77
2023-05-21T08:17:46.149Z,11.63
2023-05-21T08:20:09.447Z,11.55
2023-05-21T08:22:33.827Z,11.05
2023-05-21T08:24:56.475Z,9.48
2023-05-21T08:27:19.231Z,9.63
2023-05-21T08:29:42.328Z,8.43
2023-05-21T08:32:05.564Z,9.63
2023-05-21T08:34:28.266Z,8.18
2023-05-21T08:37:05.432Z,8.98
2023-05-21T08:39:53.988Z,9.98
2023-05-21T08:42:47.929Z,11.90
2023-05-21T08:45:39.017Z,9.25
2023-05-21T08:48:02.033Z,8.57
2023-05-21T08:50:28.461Z,9.25
2023-05-21T08:52:55.431Z,8.38
2023-05-21T08:55:18.870Z,9.60
2023-05-21T08:57:44.147Z,9.90
2023-05-21T09:00:14.406Z,8.50
2023-05-21T09:02:41.004Z,9.07
2023-05-21T09:05:04.586Z,9.55
2023-05-21T09:07:29.172Z,10.15
2023-05-21T09:10:19.994Z,8.80
2023-05-21T09:12:42.765Z,10.05
2023-05-21T09:15:07.128Z,8.23
2023-05-21T09:17:32.165Z,7.88
2023-05-21T09:20:14.764Z,9.82
2023-05-21T09:22:47.466Z,9.23
2023-05-21T09:25:12.697Z,8.45
2023-05-21T09:27:35.913Z,9.80
2023-05-21T09:29:58.631Z,8.93
2023-05-21T09:32:21.241Z,9.30
2023-05-21T09:34:43.936Z,8.73
2023-05-21T09:37:16.449Z,8.20
2023-05-21T09:39:43.413Z,10.40
2023-05-21T09:42:06.266Z,10.15
2023-05-21T09:44:29.019Z,12.27
2023-05-21T09:46:58.745Z,7.82
2023-05-21T09:49:26.426Z,10.32
2023-05-21T09:51:49.374Z,9.43
2023-05-21T09:54:34.591Z,10.32
2023-05-21T09:56:57.348Z,8.00
2023-05-21T09:59:21.039Z,10.05
2023-05-21T10:01:44.237Z,8.30
2023-05-21T10:04:08.158Z,10.13
2023-05-21T10:06:35.045Z,8.50
2023-05-21T10:09:00.848Z,9.90
2023-05-21T10:11:27.231Z,9.13
2023-05-21T10:13:58.386Z,8.95
2023-05-21T10:16:22.120Z,8.32
2023-05-21T10:18:46.920Z,8.18
2023-05-21T10:21:09.882Z,9.32
2023-05-21T10:23:33.810Z,11.35
2023-05-21T10:25:58.229Z,9.95
2023-05-21T10:28:22.703Z,8.18
2023-05-21T10:30:46.554Z,8.20
2023-05-21T10:33:09.431Z,8.13
2023-05-21T10:35:34.072Z,7.63
2023-05-21T10:37:59.212Z,10.52
2023-05-21T10:40:21.996Z,10.27
2023-05-21T10:43:26.946Z,8.90
2023-05-21T10:46:04.802Z,9.43
2023-05-21T10:48:42.509Z,8.00
2023-05-21T10:51:23.386Z,9.60
2023-05-21T10:54:23.413Z,10.02
2023-05-21T10:56:59.538Z,9.63
2023-05-21T10:59:36.629Z,8.38
2023-05-21T11:01:59.893Z,8.30
2023-05-21T11:04:23.952Z,7.20
2023-05-21T11:06:49.707Z,11.75
2023-05-21T11:09:16.479Z,12.00
2023-05-21T11:11:46.531Z,7.85
2023-05-21T11:14:35.580Z,9.68
2023-05-21T11:16:59.928Z,8.90
2023-05-21T11:19:22.770Z,7.40
2023-05-21T11:21:51.368Z,8.65
2023-05-21T11:24:20.369Z,8.88
2023-05-21T11:26:50.102Z,7.22
2023-05-21T11:29:12.957Z,11.43
2023-05-21T11:31:39.383Z,8.63
2023-05-21T11:34:11.365Z,12.20
2023-05-21T11:36:36.065Z,10.45
2023-05-21T11:39:13.776Z,10.10
2023-05-21T11:42:01.622Z,8.48
2023-05-21T11:44:43.019Z,7.43
2023-05-21T11:47:07.296Z,8.00
2023-05-21T11:49:31.204Z,7.63
2023-05-21T11:51:53.975Z,10.13
2023-05-21T11:54:18.195Z,8.48
2023-05-21T11:56:42.053Z,9.70
2023-05-21T11:59:05.218Z,7.15
2023-05-21T12:01:27.947Z,8.05
2023-05-21T12:03:50.765Z,7.88
2023-05-21T12:06:14.242Z,7.50
2023-05-21T12:08:38.453Z,10.90
2023-05-21T12:11:01.915Z,8.00
2023-05-21T12:13:26.080Z,9.77
2023-05-21T12:15:48.761Z,10.25
2023-05-21T12:18:11.829Z,9.85
2023-05-21T12:20:34.776Z,9.90
2023-05-21T12:22:58.992Z,9.02
2023-05-21T12:25:22.308Z,7.20
2023-05-21T12:27:45.168Z,9.15
2023-05-21T12:30:08.669Z,8.77
2023-05-21T12:32:31.306Z,9.20
2023-05-21T12:34:54.914Z,8.77
2023-05-21T12:37:27.527Z,11.50
2023-05-21T12:39:51.770Z,9.63
2023-05-21T12:42:15.350Z,10.18
2023-05-21T12:44:46.387Z,8.82
2023-05-21T12:47:10.432Z,11.73
2023-05-21T12:49:35.127Z,16.52
2023-05-21T12:51:57.910Z,8.73
2023-05-21T12:54:20.972Z,9.30
2023-05-21T12:56:45.376Z,9.43
2023-05-21T12:59:13.643Z,8.35
2023-05-21T13:01:36.733Z,9.77
2023-05-21T13:03:59.327Z,9.43
2023-05-21T13:07:05.122Z,9.23
2023-05-21T13:09:27.955Z,10.43
2023-05-21T13:11:50.553Z,9.13
2023-05-21T13:14:13.211Z,9.52
2023-05-21T13:16:36.119Z,9.80
2023-05-21T13:18:58.838Z,7.80
2023-05-21T13:21:21.422Z,8.30
2023-05-21T13:23:44.092Z,13.95
2023-05-21T13:26:06.780Z,12.48
2023-05-21T13:28:29.433Z,10.52
2023-05-21T13:30:55.034Z,8.88
2023-05-21T13:33:17.806Z,11.00
2023-05-21T13:35:40.944Z,8.65
2023-05-21T13:38:03.664Z,10.40
2023-05-21T13:40:27.088Z,8.35
2023-05-21T13:42:50.173Z,9.43
2023-05-21T13:45:15.081Z,9.00
2023-05-21T13:47:40.261Z,7.85
2023-05-21T13:50:03.864Z,9.43
2023-05-21T13:52:26.630Z,10.80
2023-05-21T13:54:49.254Z,8.52
2023-05-21T13:57:12.030Z,10.82
2023-05-21T13:59:34.812Z,7.68
2023-05-21T14:01:58.189Z,13.13
2023-05-21T14:04:21.379Z,13.40
2023-05-21T14:06:44.688Z,14.95
2023-05-21T14:09:07.535Z,11.27
2023-05-21T14:11:32.132Z,12.27
2023-05-21T14:13:54.825Z,11.18
2023-05-21T14:16:18.317Z,13.05
2023-05-21T14:18:41.158Z,10.93
2023-05-21T14:21:03.966Z,9.60
2023-05-21T14:23:26.546Z,11.20
2023-05-21T14:25:49.352Z,9.10
2023-05-21T14:28:12.059Z,8.90
2023-05-21T14:30:34.745Z,9.80
2023-05-21T14:32:58.058Z,7.88
2023-05-21T14:35:21.064Z,9.13
2023-05-21T14:37:43.663Z,8.73
2023-05-21T14:40:08.023Z,7.75
2023-05-21T14:42:30.932Z,12.40
2023-05-21T14:44:54.525Z,8.45
2023-05-21T14:47:17.160Z,10.27
2023-05-21T14:49:39.811Z,9.73
2023-05-21T14:52:02.504Z,8.45
2023-05-21T14:54:25.695Z,8.63
2023-05-21T14:56:48.413Z,8.48
2023-05-21T14:59:12.935Z,10.52
2023-05-21T15:01:35.705Z,9.20
2023-05-21T15:03:58.814Z,10.88
2023-05-21T15:06:21.869Z,8.00
2023-05-21T15:08:44.839Z,11.18
2023-05-21T15:11:09.856Z,10.02
2023-05-21T15:13:32.621Z,9.48
2023-05-21T15:15:55.525Z,10.10
2023-05-21T15:18:18.807Z,9.45
2023-05-21T15:20:41.704Z,8.52
2023-05-21T15:23:16.204Z,9.93
2023-05-21T15:25:40.122Z,8.65
2023-05-21T15:28:02.824Z,10.00
2023-05-21T15:30:27.544Z,10.15
2023-05-21T15:32:50.547Z,8.75
2023-05-21T15:35:13.283Z,9.80
2023-05-21T15:37:36.086Z,10.00
2023-05-21T15:39:58.868Z,9.70
2023-05-21T15:42:21.974Z,8.80
2023-05-21T15:44:44.924Z,9.70
2023-05-21T15:47:08.295Z,9.60
2023-05-21T15:49:31.199Z,7.90
2023-05-21T15:51:53.858Z,8.48
2023-05-21T15:54:16.670Z,9.52
2023-05-21T15:56:40.682Z,9.15
2023-05-21T15:59:04.116Z,10.02
2023-05-21T16:01:30.012Z,10.88
2023-05-21T16:03:52.724Z,9.00
2023-05-21T16:06:15.606Z,8.07
2023-05-21T16:08:38.533Z,8.10
2023-05-21T16:11:01.304Z,10.32
2023-05-21T16:13:24.069Z,9.10
2023-05-21T16:15:46.819Z,10.07
2023-05-21T16:18:10.016Z,7.88
2023-05-21T16:20:33.488Z,8.07
2023-05-21T16:22:56.588Z,9.85
2023-05-21T16:25:19.276Z,8.93
2023-05-21T16:27:41.950Z,7.82
2023-05-21T16:30:05.565Z,11.70
2023-05-21T16:32:29.797Z,8.35
2023-05-21T16:34:52.638Z,8.98
2023-05-21T16:37:15.330Z,7.68
2023-05-21T16:39:38.002Z,10.52
2023-05-21T16:42:01.321Z,8.90
2023-05-21T16:44:23.993Z,9.70
2023-05-21T16:46:46.753Z,11.27
2023-05-21T16:49:09.473Z,9.60
2023-05-21T16:51:32.246Z,8.48
2023-05-21T16:53:54.845Z,7.30
2023-05-21T16:56:17.560Z,9.05
2023-05-21T16:58:40.302Z,10.65
2023-05-21T17:01:03.971Z,8.75
2023-05-21T17:03:26.901Z,9.75
2023-05-21T17:05:49.887Z,8.73
2023-05-21T17:08:12.516Z,8.32
2023-05-21T17:10:35.154Z,10.70
2023-05-21T17:12:59.832Z,9.00
2023-05-21T17:15:24.598Z,8.68
2023-05-21T17:17:47.235Z,7.28
2023-05-21T17:20:10.592Z,8.85
2023-05-21T17:22:33.247Z,8.13
2023-05-21T17:24:56.151Z,7.75
2023-05-21T17:27:18.867Z,8.30
2023-05-21T17:29:42.420Z,11.82
2023-05-21T17:32:05.788Z,8.35
2023-05-21T17:34:31.948Z,11.80
2023-05-21T17:36:54.937Z,8.98
2023-05-21T17:39:17.570Z,8.27
2023-05-21T17:41:40.481Z,9.75
2023-05-21T17:44:03.178Z,8.48
2023-05-21T17:46:25.902Z,10.88
2023-05-21T17:48:48.690Z,9.70
2023-05-21T17:51:12.539Z,9.82
2023-05-21T17:53:35.391Z,8.43
2023-05-21T17:55:58.054Z,9.20
2023-05-21T17:58:21.180Z,8.02
2023-05-21T18:00:43.863Z,10.65
2023-05-21T18:03:06.927Z,9.48
2023-05-21T18:05:29.822Z,9.93
2023-05-21T18:07:52.807Z,8.48
2023-05-21T18:10:15.729Z,9.32
2023-05-21T18:12:39.500Z,10.13
2023-05-21T18:15:02.501Z,9.13
2023-05-21T18:17:25.288Z,9.10
2023-05-21T18:19:47.976Z,9.18
2023-05-21T18:22:11.122Z,9.48
2023-05-21T18:24:33.910Z,7.78
2023-05-21T18:26:56.694Z,9.63
2023-05-21T18:29:19.349Z,9.00
2023-05-21T18:31:44.512Z,8.52
2023-05-21T18:34:07.111Z,9.93
2023-05-21T18:36:30.157Z,9.38
2023-05-21T18:38:53.283Z,9.98
2023-05-21T18:41:16.049Z,10.98
2023-05-21T18:43:38.794Z,12.88
2023-05-21T18:46:01.593Z,11.77
2023-05-21T18:48:24.631Z,10.38
2023-05-21T18:50:47.752Z,8.93
2023-05-21T18:53:10.583Z,10.55
2023-05-21T18:55:34.641Z,9.60
2023-05-21T18:57:57.529Z,9.57
2023-05-21T19:00:20.886Z,10.50
2023-05-21T19:02:44.989Z,10.13
2023-05-21T19:05:08.521Z,9.38
2023-05-21T19:07:31.385Z,8.73
2023-05-21T19:09:54.726Z,11.57
2023-05-21T19:12:18.064Z,9.57
2023-05-21T19:14:44.940Z,11.23
2023-05-21T19:17:08.457Z,14.15
2023-05-21T19:19:31.349Z,9.38
2023-05-21T19:21:54.126Z,13.55
2023-05-21T19:24:17.225Z,10.73
2023-05-21T19:26:40.163Z,10.43
2023-05-21T19:29:02.868Z,12.90
2023-05-21T19:31:25.825Z,12.77
2023-05-21T19:33:48.786Z,11.50
2023-05-21T19:36:11.875Z,10.52
2023-05-21T19:38:35.400Z,10.95
2023-05-21T19:40:58.737Z,10.82
2023-05-21T19:43:21.418Z,9.65
2023-05-21T19:45:44.223Z,12.55
2023-05-21T19:48:07.226Z,11.40
2023-05-21T19:50:29.858Z,11.82
2023-05-21T19:52:53.541Z,11.10
2023-05-21T19:55:20.242Z,11.13
2023-05-21T19:57:43.266Z,9.80
2023-05-21T20:00:10.314Z,10.07
2023-05-21T20:02:35.628Z,11.15
2023-05-21T20:04:59.204Z,10.93
2023-05-21T20:07:21.901Z,10.73
2023-05-21T20:09:44.554Z,13.05
2023-05-21T20:12:07.968Z,11.15
2023-05-21T20:14:33.599Z,11.65
2023-05-21T20:16:58.636Z,10.25
2023-05-21T20:19:22.489Z,11.30
2023-05-21T20:21:45.369Z,11.93
2023-05-21T20:24:08.768Z,12.10
2023-05-21T20:26:34.780Z,11.77
2023-05-21T20:28:57.377Z,10.45
2023-05-21T20:31:21.719Z,11.77
2023-05-21T20:33:44.501Z,11.45
2023-05-21T20:36:07.903Z,14.32
2023-05-21T20:38:33.244Z,12.77
2023-05-21T20:40:55.930Z,13.52
2023-05-21T20:43:20.072Z,10.93
2023-05-21T20:45:43.712Z,15.45
2023-05-21T20:48:06.912Z,13.50
2023-05-21T20:50:29.840Z,13.38
2023-05-21T20:52:52.530Z,12.43
2023-05-21T20:55:15.279Z,12.77
2023-05-21T20:57:38.062Z,12.68
2023-05-21T21:00:00.992Z,12.13
2023-05-21T21:02:23.686Z,13.75
2023-05-21T21:04:50.672Z,12.95
2023-05-21T21:07:13.292Z,12.85
2023-05-21T21:09:37.142Z,12.38
2023-05-21T21:12:06.278Z,12.38
2023-05-21T21:14:34.178Z,12.43
2023-05-21T21:16:56.829Z,14.43
2023-05-21T21:19:19.711Z,12.68
2023-05-21T21:21:42.477Z,13.05
2023-05-21T21:24:05.785Z,11.63
2023-05-21T21:26:28.409Z,11.50
2023-05-21T21:28:51.255Z,14.95
2023-05-21T21:31:14.063Z,12.27
2023-05-21T21:33:36.848Z,13.75
2023-05-21T21:36:00.528Z,11.98
2023-05-21T21:38:23.270Z,15.05
2023-05-21T21:40:45.910Z,13.68
2023-05-21T21:43:08.573Z,12.75
2023-05-21T21:45:31.413Z,13.32
2023-05-21T21:47:54.156Z,12.45
2023-05-21T21:50:16.917Z,14.63
2023-05-21T21:52:40.262Z,13.13
2023-05-21T21:55:02.899Z,12.55
2023-05-21T21:57:27.575Z,13.45
2023-05-21T21:59:50.458Z,13.82
2023-05-21T22:02:13.389Z,15.32
2023-05-21T22:04:36.150Z,14.63
2023-05-21T22:06:59.071Z,13.70
2023-05-21T22:09:22.760Z,14.18
2023-05-21T22:11:45.491Z,13.95
2023-05-21T22:14:08.617Z,15.25
2023-05-21T22:16:31.831Z,13.77
2023-05-21T22:18:55.245Z,13.02
2023-05-21T22:21:18.543Z,14.30
2023-05-21T22:23:41.357Z,14.77
2023-05-21T22:26:04.235Z,15.80
2023-05-21T22:28:26.834Z,15.93
2023-05-21T22:30:49.457Z,14.20
2023-05-21T22:33:12.125Z,13.95
2023-05-21T22:35:34.805Z,17.40
2023-05-21T22:37:58.798Z,15.95
2023-05-21T22:40:21.496Z,12.73
2023-05-21T22:42:45.040Z,16.13
2023-05-21T22:45:08.538Z,13.48
2023-05-21T22:47:32.303Z,13.93
2023-05-21T22:49:55.106Z,14.15
2023-05-21T22:52:21.644Z,14.70
2023-05-21T22:54:44.271Z,13.75
2023-05-21T22:57:06.945Z,14.13
2023-05-21T22:59:29.828Z,16.50
2023-05-21T23:01:53.026Z,13.40
2023-05-21T23:04:15.876Z,14.15
2023-05-21T23:06:38.609Z,13.73
2023-05-21T23:09:01.360Z,13.05
2023-05-21T23:11:24.157Z,13.52
2023-05-21T23:13:46.851Z,12.63
2023-05-21T23:16:09.577Z,12.48
2023-05-21T23:18:32.848Z,11.75
2023-05-21T23:20:55.862Z,13.13
2023-05-21T23:23:18.583Z,12.82
2023-05-21T23:25:41.238Z,10.73
2023-05-21T23:28:04.792Z,11.35
2023-05-21T23:30:27.811Z,14.27
2023-05-21T23:32:50.859Z,11.98
2023-05-21T23:35:14.474Z,14.77
2023-05-21T23:37:37.155Z,11.43
2023-05-21T23:39:59.771Z,13.10
2023-05-21T23:42:22.829Z,10.30
2023-05-21T23:44:45.912Z,12.57
2023-05-21T23:47:49.634Z,10.57
2023-05-21T23:50:12.285Z,11.18
2023-05-21T23:52:35.120Z,11.02
2023-05-21T23:54:58.055Z,10.95
2023-05-21T23:57:20.671Z,10.35
2023-05-21T23:59:43.386Z,10.98
